createdAt,value
2018-08-09T00:00:48.353Z,71.32
2018-08-09T00:01:48.382Z,71.84
2018-08-09T00:02:48.418Z,73.39
2018-08-09T00:03:48.446Z,72.29
2018-08-09T00:04:48.481Z,71.61
2018-08-09T00:05:48.507Z,73.07
2018-08-09T00:06:48.542Z,73.46
2018-08-09T00:07:48.587Z,73.65
2018-08-09T00:08:48.601Z,73.46
2018-08-09T00:09:48.631Z,71.70
2018-08-09T00:10:48.662Z,72.77
2018-08-09T00:11:48.693Z,73.26
2018-08-09T00:12:48.726Z,72.77
2018-08-09T00:13:48.756Z,71.80
2018-08-09T00:14:48.788Z,72.39
2018-08-09T00:15:48.816Z,72.09
2018-08-09T00:16:48.856Z,72.00
2018-08-09T00:17:48.894Z,73.07
2018-08-09T00:18:49.010Z,73.46
2018-08-09T00:19:48.946Z,72.97
2018-08-09T00:20:48.972Z,71.42
2018-08-09T00:21:49.004Z,73.36
2018-08-09T00:22:49.037Z,73.94
2018-08-09T00:23:49.138Z,73.46
2018-08-09T00:24:49.113Z,72.39
2018-08-09T00:25:49.126Z,73.26
2018-08-09T00:26:49.156Z,73.07
2018-08-09T00:27:49.192Z,72.97
2018-08-09T00:28:49.217Z,71.90
2018-08-09T00:29:49.275Z,73.16
2018-08-09T00:30:49.291Z,72.45
2018-08-09T00:31:49.311Z,71.86
2018-08-09T00:32:49.357Z,73.22
2018-08-09T00:33:49.380Z,71.19
2018-08-09T00:34:49.407Z,71.12
2018-08-09T00:35:49.432Z,69.96
2018-08-09T00:36:49.480Z,71.80
2018-08-09T00:37:49.505Z,72.49
2018-08-09T00:38:49.532Z,71.12
2018-08-09T00:39:49.571Z,71.32
2018-08-09T00:40:49.615Z,70.64
2018-08-09T00:41:49.621Z,70.45
2018-08-09T00:42:49.666Z,70.93
2018-08-09T00:43:49.691Z,68.89
2018-08-09T00:44:49.727Z,68.89
2018-08-09T00:45:49.754Z,68.89
2018-08-09T00:46:49.787Z,68.12
2018-08-09T00:47:49.813Z,68.31
2018-08-09T00:48:49.840Z,68.41
2018-08-09T00:49:49.878Z,67.34
2018-08-09T00:50:49.903Z,67.63
2018-08-09T00:51:49.938Z,67.44
2018-08-09T00:52:49.963Z,66.95
2018-08-09T00:53:49.996Z,67.44
2018-08-09T00:54:50.028Z,65.59
2018-08-09T00:55:50.056Z,66.11
2018-08-09T00:56:50.092Z,65.30
2018-08-09T00:57:50.116Z,65.63
2018-08-09T00:58:50.153Z,64.62
2018-08-09T00:59:50.185Z,63.88
2018-08-09T01:00:50.225Z,64.07
2018-08-09T01:01:50.242Z,65.24
2018-08-09T01:02:50.274Z,65.33
2018-08-09T01:03:50.300Z,63.78
2018-08-09T01:04:50.341Z,64.92
2018-08-09T01:05:50.382Z,64.82
2018-08-09T01:06:50.398Z,64.23
2018-08-09T01:07:50.426Z,63.46
2018-08-09T01:08:50.459Z,63.78
2018-08-09T01:09:50.487Z,64.62
2018-08-09T01:10:50.520Z,64.23
2018-08-09T01:11:50.553Z,63.26
2018-08-09T01:12:50.586Z,63.68
2018-08-09T01:13:50.622Z,64.82
2018-08-09T01:14:50.648Z,63.85
2018-08-09T01:15:50.677Z,64.04
2018-08-09T01:16:50.714Z,63.49
2018-08-09T01:17:50.734Z,63.01
2018-08-09T01:18:50.776Z,63.17
2018-08-09T01:19:50.814Z,63.26
2018-08-09T01:20:50.828Z,63.95
2018-08-09T01:21:50.860Z,64.53
2018-08-09T01:22:50.900Z,65.11
2018-08-09T01:23:50.924Z,64.82
2018-08-09T01:24:50.955Z,64.72
2018-08-09T01:25:50.994Z,65.79
2018-08-09T01:26:51.027Z,65.40
2018-08-09T01:27:51.112Z,66.76
2018-08-09T01:28:51.077Z,66.37
2018-08-09T01:29:51.122Z,67.02
2018-08-09T01:30:51.143Z,67.02
2018-08-09T01:31:51.217Z,67.21
2018-08-09T01:32:51.267Z,67.21
2018-08-09T01:33:51.248Z,67.69
2018-08-09T01:34:51.266Z,67.69
2018-08-09T01:35:51.296Z,68.37
2018-08-09T01:36:51.439Z,67.60
2018-08-09T01:37:51.355Z,67.79
2018-08-09T01:38:51.411Z,68.47
2018-08-09T01:39:51.430Z,69.06
2018-08-09T01:40:51.450Z,69.34
2018-08-09T01:41:51.482Z,68.18
2018-08-09T01:42:51.512Z,69.24
2018-08-09T01:43:51.541Z,69.15
2018-08-09T01:44:51.573Z,69.73
2018-08-09T01:45:51.626Z,69.24
2018-08-09T01:46:51.634Z,70.28
2018-08-09T01:47:51.724Z,69.99
2018-08-09T01:48:51.702Z,69.60
2018-08-09T01:49:51.725Z,70.51
2018-08-09T01:50:51.759Z,69.73
2018-08-09T01:51:51.791Z,70.12
2018-08-09T01:52:51.818Z,69.31
2018-08-09T01:53:51.865Z,69.89
2018-08-09T01:54:51.884Z,70.76
2018-08-09T01:55:51.919Z,71.34
2018-08-09T01:56:51.946Z,71.34
2018-08-09T01:57:51.977Z,71.25
2018-08-09T01:58:52.020Z,70.96
2018-08-09T01:59:52.040Z,71.06
2018-08-09T02:00:52.066Z,71.54
2018-08-09T02:01:52.095Z,71.25
2018-08-09T02:02:52.129Z,71.64
2018-08-09T02:03:52.154Z,72.61
2018-08-09T02:04:52.249Z,72.22
2018-08-09T02:05:52.225Z,71.44
2018-08-09T02:06:52.252Z,72.41
2018-08-09T02:07:52.285Z,72.31
2018-08-09T02:08:52.318Z,72.51
2018-08-09T02:09:52.357Z,72.41
2018-08-09T02:10:52.377Z,72.89
2018-08-09T02:11:52.407Z,73.28
2018-08-09T02:12:52.435Z,73.19
2018-08-09T02:13:52.466Z,73.28
2018-08-09T02:14:52.498Z,73.19
2018-08-09T02:15:52.534Z,72.99
2018-08-09T02:16:52.561Z,73.38
2018-08-09T02:17:52.586Z,73.67
2018-08-09T02:18:52.629Z,73.86
2018-08-09T02:19:52.651Z,73.48
2018-08-09T02:20:52.679Z,74.06
2018-08-09T02:21:52.719Z,73.86
2018-08-09T02:22:52.748Z,73.83
2018-08-09T02:23:52.772Z,74.16
2018-08-09T02:24:52.810Z,73.96
2018-08-09T02:25:52.841Z,74.02
2018-08-09T02:26:52.868Z,73.77
2018-08-09T02:27:52.897Z,74.06
2018-08-09T02:28:52.936Z,74.80
2018-08-09T02:29:52.956Z,75.32
2018-08-09T02:30:52.989Z,74.80
2018-08-09T02:31:53.021Z,74.70
2018-08-09T02:32:53.054Z,74.51
2018-08-09T02:33:53.084Z,74.70
2018-08-09T02:34:53.116Z,74.80
2018-08-09T02:35:53.154Z,74.99
2018-08-09T02:36:53.183Z,75.28
2018-08-09T02:37:53.215Z,73.93
2018-08-09T02:38:53.248Z,74.70
2018-08-09T02:39:53.265Z,74.90
2018-08-09T02:40:53.300Z,74.70
2018-08-09T02:41:53.329Z,75.96
2018-08-09T02:42:53.357Z,75.48
2018-08-09T02:43:53.392Z,75.48
2018-08-09T02:44:53.422Z,75.48
2018-08-09T02:45:53.453Z,75.38
2018-08-09T02:46:53.523Z,75.96
2018-08-09T02:47:53.521Z,75.38
2018-08-09T02:48:53.552Z,76.25
2018-08-09T02:49:53.574Z,75.77
2018-08-09T02:50:53.609Z,75.09
2018-08-09T02:51:53.638Z,75.38
2018-08-09T02:52:53.675Z,75.57
2018-08-09T02:53:53.697Z,75.77
2018-08-09T02:54:53.747Z,75.77
2018-08-09T02:55:53.755Z,75.48
2018-08-09T02:56:53.813Z,75.28
2018-08-09T02:57:53.818Z,75.67
2018-08-09T02:58:53.849Z,75.87
2018-08-09T02:59:53.884Z,75.87
2018-08-09T03:00:53.925Z,76.35
2018-08-09T03:01:53.948Z,76.54
2018-08-09T03:02:53.982Z,77.03
2018-08-09T03:03:54.028Z,76.45
2018-08-09T03:04:54.035Z,76.35
2018-08-09T03:05:54.066Z,76.93
2018-08-09T03:06:54.095Z,76.93
2018-08-09T03:07:54.126Z,76.25
2018-08-09T03:08:54.163Z,76.35
2018-08-09T03:09:54.193Z,76.35
2018-08-09T03:10:54.223Z,76.25
2018-08-09T03:11:54.252Z,77.12
2018-08-09T03:12:54.278Z,76.89
2018-08-09T03:13:54.308Z,76.35
2018-08-09T03:14:54.342Z,76.74
2018-08-09T03:15:54.381Z,76.64
2018-08-09T03:16:54.408Z,76.99
2018-08-09T03:17:54.440Z,77.12
2018-08-09T03:18:54.464Z,77.57
2018-08-09T03:19:54.495Z,77.37
2018-08-09T03:20:54.535Z,76.60
2018-08-09T03:21:54.557Z,77.37
2018-08-09T03:22:54.587Z,77.28
2018-08-09T03:23:54.666Z,77.96
2018-08-09T03:24:54.647Z,77.09
2018-08-09T03:25:54.683Z,76.99
2018-08-09T03:26:54.710Z,77.47
2018-08-09T03:27:54.741Z,77.67
2018-08-09T03:28:54.769Z,77.47
2018-08-09T03:29:54.802Z,77.28
2018-08-09T03:30:54.840Z,77.19
2018-08-09T03:31:54.863Z,77.57
2018-08-09T03:32:54.891Z,77.37
2018-08-09T03:33:54.922Z,77.47
2018-08-09T03:34:54.954Z,77.19
2018-08-09T03:35:54.987Z,77.67
2018-08-09T03:36:55.032Z,77.28
2018-08-09T03:37:55.045Z,78.54
2018-08-09T03:38:55.089Z,77.47
2018-08-09T03:39:55.105Z,78.44
2018-08-09T03:40:55.135Z,78.25
2018-08-09T03:41:55.165Z,78.34
2018-08-09T03:42:55.197Z,77.67
2018-08-09T03:43:55.236Z,77.96
2018-08-09T03:44:55.259Z,78.25
2018-08-09T03:45:55.405Z,77.96
2018-08-09T03:46:55.315Z,77.67
2018-08-09T03:47:55.350Z,78.15
2018-08-09T03:48:55.388Z,78.25
2018-08-09T03:49:55.414Z,78.54
2018-08-09T03:50:55.454Z,78.25
2018-08-09T03:51:55.482Z,78.44
2018-08-09T03:52:55.504Z,78.44
2018-08-09T03:53:55.536Z,78.83
2018-08-09T03:54:55.652Z,78.74
2018-08-09T03:55:55.607Z,78.83
2018-08-09T03:56:55.629Z,79.22
2018-08-09T03:57:55.659Z,79.12
2018-08-09T03:58:55.690Z,78.64
2018-08-09T03:59:55.721Z,78.54
2018-08-09T04:00:55.751Z,79.12
2018-08-09T04:01:55.780Z,78.89
2018-08-09T04:02:55.808Z,78.83
2018-08-09T04:03:55.960Z,79.02
2018-08-09T04:04:55.881Z,78.83
2018-08-09T04:05:55.922Z,78.74
2018-08-09T04:06:55.929Z,78.64
2018-08-09T04:07:55.969Z,78.25
2018-08-09T04:08:55.997Z,79.02
2018-08-09T04:09:56.025Z,79.02
2018-08-09T04:10:56.062Z,79.12
2018-08-09T04:11:56.153Z,79.22
2018-08-09T04:12:56.113Z,78.44
2018-08-09T04:13:56.145Z,79.41
2018-08-09T04:14:56.176Z,79.22
2018-08-09T04:15:56.203Z,79.12
2018-08-09T04:16:56.240Z,78.92
2018-08-09T04:17:56.274Z,79.32
2018-08-09T04:18:56.307Z,79.47
2018-08-09T04:19:56.335Z,79.27
2018-08-09T04:20:56.360Z,78.74
2018-08-09T04:21:56.390Z,78.69
2018-08-09T04:22:56.419Z,79.22
2018-08-09T04:23:56.455Z,79.41
2018-08-09T04:24:56.482Z,79.41
2018-08-09T04:25:56.530Z,79.02
2018-08-09T04:26:56.549Z,79.32
2018-08-09T04:27:56.575Z,78.89
2018-08-09T04:28:56.616Z,79.41
2018-08-09T04:29:56.635Z,79.50
2018-08-09T04:30:56.670Z,79.80
2018-08-09T04:31:56.748Z,79.32
2018-08-09T04:32:56.727Z,79.41
2018-08-09T04:33:56.758Z,79.32
2018-08-09T04:34:56.788Z,79.12
2018-08-09T04:35:56.827Z,79.12
2018-08-09T04:36:56.857Z,79.37
2018-08-09T04:37:56.899Z,79.41
2018-08-09T04:38:56.904Z,79.41
2018-08-09T04:39:56.946Z,79.50
2018-08-09T04:40:56.968Z,79.02
2018-08-09T04:41:56.998Z,78.92
2018-08-09T04:42:57.030Z,79.12
2018-08-09T04:43:57.067Z,78.83
2018-08-09T04:44:57.099Z,78.74
2018-08-09T04:45:57.128Z,78.74
2018-08-09T04:46:57.161Z,78.74
2018-08-09T04:47:57.193Z,78.92
2018-08-09T04:48:57.224Z,78.54
2018-08-09T04:49:57.245Z,79.02
2018-08-09T04:50:57.276Z,78.25
2018-08-09T04:51:57.322Z,78.25
2018-08-09T04:52:58.120Z,77.37
2018-08-09T04:53:57.368Z,77.67
2018-08-09T04:54:57.401Z,77.67
2018-08-09T04:55:57.428Z,77.57
2018-08-09T04:56:57.455Z,77.53
2018-08-09T04:57:57.509Z,77.19
2018-08-09T04:58:57.521Z,77.19
2018-08-09T04:59:57.557Z,76.60
2018-08-09T05:00:57.581Z,76.70
2018-08-09T05:01:57.629Z,75.63
2018-08-09T05:02:57.640Z,76.60
2018-08-09T05:03:57.705Z,76.41
2018-08-09T05:04:57.698Z,77.14
2018-08-09T05:05:57.730Z,77.47
2018-08-09T05:06:57.759Z,77.37
2018-08-09T05:07:57.811Z,77.47
2018-08-09T05:08:57.830Z,77.76
2018-08-09T05:09:57.852Z,77.09
2018-08-09T05:10:57.898Z,77.28
2018-08-09T05:11:57.914Z,77.37
2018-08-09T05:12:57.981Z,76.89
2018-08-09T05:13:57.973Z,77.09
2018-08-09T05:14:58.003Z,76.21
2018-08-09T05:15:58.090Z,75.83
2018-08-09T05:16:58.064Z,76.41
2018-08-09T05:17:58.104Z,75.73
2018-08-09T05:18:58.138Z,76.12
2018-08-09T05:19:58.166Z,76.31
2018-08-09T05:20:58.198Z,76.41
2018-08-09T05:21:58.222Z,77.19
2018-08-09T05:22:58.297Z,75.63
2018-08-09T05:23:58.292Z,75.92
2018-08-09T05:24:58.313Z,76.31
2018-08-09T05:25:58.351Z,77.09
2018-08-09T05:26:58.380Z,76.70
2018-08-09T05:27:58.404Z,75.92
2018-08-09T05:28:58.436Z,76.12
2018-08-09T05:29:58.468Z,75.54
2018-08-09T05:30:58.496Z,75.15
2018-08-09T05:31:58.526Z,75.73
2018-08-09T05:32:58.559Z,75.44
2018-08-09T05:33:58.590Z,76.31
2018-08-09T05:34:58.621Z,75.83
2018-08-09T05:35:58.654Z,76.02
2018-08-09T05:36:58.677Z,74.76
2018-08-09T05:37:58.706Z,75.15
2018-08-09T05:38:58.741Z,74.66
2018-08-09T05:39:58.772Z,74.76
2018-08-09T05:40:58.798Z,75.05
2018-08-09T05:41:58.828Z,75.05
2018-08-09T05:42:58.870Z,75.63
2018-08-09T05:43:58.889Z,75.15
2018-08-09T05:44:58.922Z,73.69
2018-08-09T05:45:58.955Z,74.08
2018-08-09T05:46:58.982Z,73.41
2018-08-09T05:47:59.014Z,73.50
2018-08-09T05:48:59.042Z,73.69
2018-08-09T05:49:59.074Z,73.69
2018-08-09T05:50:59.110Z,74.28
2018-08-09T05:51:59.138Z,73.31
2018-08-09T05:53:00.157Z,73.11
2018-08-09T05:53:59.192Z,73.31
2018-08-09T05:54:59.262Z,72.05
2018-08-09T05:55:59.253Z,73.11
2018-08-09T05:56:59.299Z,72.24
2018-08-09T05:57:59.328Z,72.05
2018-08-09T05:58:59.348Z,72.73
2018-08-09T05:59:59.380Z,72.24
2018-08-09T06:00:59.410Z,72.24
2018-08-09T06:01:59.442Z,73.02
2018-08-09T06:02:59.471Z,72.34
2018-08-09T06:03:59.522Z,72.44
2018-08-09T06:04:59.528Z,72.73
2018-08-09T06:05:59.571Z,72.53
2018-08-09T06:06:59.592Z,72.15
2018-08-09T06:07:59.631Z,72.34
2018-08-09T06:08:59.659Z,72.38
2018-08-09T06:09:59.680Z,72.44
2018-08-09T06:10:59.724Z,72.28
2018-08-09T06:11:59.742Z,73.11
2018-08-09T06:12:59.864Z,71.99
2018-08-09T06:13:59.806Z,73.05
2018-08-09T06:14:59.840Z,73.35
2018-08-09T06:15:59.868Z,73.35
2018-08-09T06:16:59.922Z,72.18
2018-08-09T06:17:59.925Z,72.28
2018-08-09T06:18:59.984Z,72.18
2018-08-09T06:19:59.988Z,71.60
2018-08-09T06:21:00.016Z,72.38
2018-08-09T06:22:00.050Z,71.70
2018-08-09T06:23:00.086Z,72.67
2018-08-09T06:24:00.113Z,71.50
2018-08-09T06:25:00.152Z,71.15
2018-08-09T06:26:00.174Z,71.54
2018-08-09T06:27:00.219Z,72.31
2018-08-09T06:28:00.238Z,72.71
2018-08-09T06:29:00.262Z,71.60
2018-08-09T06:30:00.299Z,71.64
2018-08-09T06:31:00.329Z,71.83
2018-08-09T06:32:00.361Z,71.54
2018-08-09T06:33:00.385Z,71.54
2018-08-09T06:34:00.414Z,70.67
2018-08-09T06:35:00.446Z,71.06
2018-08-09T06:36:00.474Z,71.34
2018-08-09T06:37:00.527Z,71.15
2018-08-09T06:38:00.537Z,71.15
2018-08-09T06:39:00.567Z,70.96
2018-08-09T06:40:00.599Z,70.86
2018-08-09T06:41:00.625Z,70.76
2018-08-09T06:42:00.661Z,70.86
2018-08-09T06:43:00.692Z,70.57
2018-08-09T06:44:00.736Z,71.25
2018-08-09T06:45:00.749Z,71.15
2018-08-09T06:46:00.781Z,71.15
2018-08-09T06:47:00.821Z,71.15
2018-08-09T06:48:00.845Z,70.57
2018-08-09T06:49:00.882Z,72.31
2018-08-09T06:50:00.917Z,71.83
2018-08-09T06:51:00.936Z,71.73
2018-08-09T06:52:00.974Z,70.96
2018-08-09T06:53:00.993Z,71.06
2018-08-09T06:54:01.024Z,71.25
2018-08-09T06:55:01.056Z,71.28
2018-08-09T06:56:01.103Z,71.58
2018-08-09T06:57:01.118Z,70.41
2018-08-09T06:58:01.150Z,70.80
2018-08-09T06:59:01.178Z,70.99
2018-08-09T07:00:01.219Z,70.70
2018-08-09T07:01:01.239Z,70.80
2018-08-09T07:02:01.356Z,70.80
2018-08-09T07:03:01.313Z,71.28
2018-08-09T07:04:01.333Z,70.99
2018-08-09T07:05:01.369Z,70.70
2018-08-09T07:06:01.395Z,70.21
2018-08-09T07:07:01.475Z,70.61
2018-08-09T07:08:01.451Z,70.80
2018-08-09T07:09:01.503Z,70.21
2018-08-09T07:10:01.517Z,70.90
2018-08-09T07:11:01.586Z,70.90
2018-08-09T07:12:01.580Z,71.28
2018-08-09T07:13:01.616Z,70.06
2018-08-09T07:14:01.635Z,70.73
2018-08-09T07:15:01.689Z,70.15
2018-08-09T07:16:01.697Z,70.15
2018-08-09T07:17:01.749Z,70.25
2018-08-09T07:18:01.769Z,70.73
2018-08-09T07:19:01.791Z,70.73
2018-08-09T07:20:01.821Z,70.15
2018-08-09T07:21:01.860Z,69.48
2018-08-09T07:22:02.866Z,69.76
2018-08-09T07:23:01.915Z,70.19
2018-08-09T07:24:01.950Z,70.39
2018-08-09T07:25:01.974Z,69.51
2018-08-09T07:26:02.003Z,70.09
2018-08-09T07:27:02.035Z,69.76
2018-08-09T07:28:02.064Z,70.35
2018-08-09T07:29:02.109Z,69.96
2018-08-09T07:30:02.133Z,70.06
2018-08-09T07:31:02.161Z,70.06
2018-08-09T07:32:02.190Z,70.83
2018-08-09T07:33:02.217Z,70.73
2018-08-09T07:34:02.249Z,70.73
2018-08-09T07:35:02.281Z,70.57
2018-08-09T07:36:02.310Z,69.70
2018-08-09T07:37:02.344Z,69.70
2018-08-09T07:38:02.374Z,70.00
2018-08-09T07:39:02.403Z,69.41
2018-08-09T07:40:02.436Z,69.51
2018-08-09T07:41:02.486Z,70.29
2018-08-09T07:42:02.496Z,70.77
2018-08-09T07:43:02.528Z,69.80
2018-08-09T07:44:02.585Z,69.41
2018-08-09T07:45:02.590Z,69.90
2018-08-09T07:46:02.624Z,69.41
2018-08-09T07:47:02.655Z,69.60
2018-08-09T07:48:02.681Z,69.54
2018-08-09T07:49:02.708Z,70.71
2018-08-09T07:50:02.746Z,69.45
2018-08-09T07:51:02.808Z,69.15
2018-08-09T07:52:02.800Z,69.35
2018-08-09T07:53:02.843Z,69.25
2018-08-09T07:54:02.880Z,69.35
2018-08-09T07:55:02.898Z,69.64
2018-08-09T07:56:02.926Z,69.74
2018-08-09T07:57:02.994Z,69.74
2018-08-09T07:58:02.987Z,69.84
2018-08-09T07:59:03.022Z,69.54
2018-08-09T08:00:03.052Z,69.15
2018-08-09T08:01:03.103Z,68.96
2018-08-09T08:02:03.109Z,69.35
2018-08-09T08:03:03.151Z,68.77
2018-08-09T08:04:03.178Z,69.19
2018-08-09T08:05:03.216Z,69.29
2018-08-09T08:06:03.273Z,68.99
2018-08-09T08:07:03.264Z,68.87
2018-08-09T08:08:03.295Z,69.58
2018-08-09T08:09:03.324Z,70.26
2018-08-09T08:10:03.357Z,69.48
2018-08-09T08:11:03.409Z,69.38
2018-08-09T08:12:03.417Z,69.29
2018-08-09T08:13:03.455Z,69.09
2018-08-09T08:14:03.474Z,69.22
2018-08-09T08:15:03.582Z,68.93
2018-08-09T08:16:03.543Z,68.54
2018-08-09T08:17:03.577Z,68.44
2018-08-09T08:18:03.605Z,68.12
2018-08-09T08:19:03.645Z,68.74
2018-08-09T08:20:03.684Z,68.44
2018-08-09T08:21:03.697Z,67.76
2018-08-09T08:22:03.726Z,67.67
2018-08-09T08:23:03.755Z,67.50
2018-08-09T08:24:03.791Z,67.99
2018-08-09T08:25:03.821Z,67.86
2018-08-09T08:26:03.849Z,67.76
2018-08-09T08:27:04.040Z,67.67
2018-08-09T08:28:03.941Z,68.09
2018-08-09T08:29:03.953Z,66.93
2018-08-09T08:30:03.977Z,67.41
2018-08-09T08:31:04.017Z,67.60
2018-08-09T08:32:04.044Z,67.31
2018-08-09T08:33:04.079Z,67.60
2018-08-09T08:34:04.107Z,66.63
2018-08-09T08:35:04.130Z,66.83
2018-08-09T08:36:04.165Z,67.83
2018-08-09T08:37:04.212Z,67.35
2018-08-09T08:38:04.232Z,67.35
2018-08-09T08:39:04.251Z,67.35
2018-08-09T08:40:04.286Z,67.18
2018-08-09T08:41:04.317Z,66.99
2018-08-09T08:42:04.348Z,66.89
2018-08-09T08:43:04.376Z,66.50
2018-08-09T08:44:04.414Z,66.21
2018-08-09T08:45:04.437Z,66.21
2018-08-09T08:46:04.479Z,66.05
2018-08-09T08:47:04.514Z,66.24
2018-08-09T08:48:04.532Z,65.82
2018-08-09T08:49:04.565Z,66.11
2018-08-09T08:50:04.593Z,66.02
2018-08-09T08:51:04.632Z,66.02
2018-08-09T08:52:04.663Z,65.75
2018-08-09T08:53:04.732Z,65.56
2018-08-09T08:54:04.718Z,64.78
2018-08-09T08:55:04.798Z,63.42
2018-08-09T08:56:04.785Z,64.87
2018-08-09T08:57:04.826Z,65.17
2018-08-09T08:58:04.847Z,65.36
2018-08-09T08:59:04.879Z,64.94
2018-08-09T09:00:04.906Z,65.82
2018-08-09T09:01:04.971Z,65.92
2018-08-09T09:02:04.988Z,65.63
2018-08-09T09:03:05.014Z,65.72
2018-08-09T09:04:05.031Z,65.82
2018-08-09T09:05:05.166Z,65.46
2018-08-09T09:06:05.101Z,64.69
2018-08-09T09:07:05.175Z,65.50
2018-08-09T09:08:05.156Z,65.30
2018-08-09T09:09:05.200Z,65.11
2018-08-09T09:10:05.220Z,65.20
2018-08-09T09:11:05.251Z,65.50
2018-08-09T09:12:05.278Z,64.91
2018-08-09T09:13:05.311Z,65.04
2018-08-09T09:14:05.349Z,63.38
2018-08-09T09:15:05.373Z,63.57
2018-08-09T09:16:05.407Z,63.74
2018-08-09T09:17:05.448Z,63.81
2018-08-09T09:18:05.470Z,64.49
2018-08-09T09:19:05.544Z,64.81
2018-08-09T09:20:05.540Z,64.52
2018-08-09T09:21:05.560Z,64.91
2018-08-09T09:22:05.592Z,63.35
2018-08-09T09:23:05.629Z,63.38
2018-08-09T09:24:05.672Z,63.48
2018-08-09T09:25:05.695Z,63.12
2018-08-09T09:26:05.717Z,62.92
2018-08-09T09:27:05.798Z,63.15
2018-08-09T09:28:05.798Z,61.88
2018-08-09T09:29:06.730Z,62.56
2018-08-09T09:30:05.844Z,61.79
2018-08-09T09:31:05.876Z,61.72
2018-08-09T09:32:05.916Z,60.55
2018-08-09T09:33:05.941Z,60.55
2018-08-09T09:34:05.979Z,61.04
2018-08-09T09:35:06.027Z,60.84
2018-08-09T09:36:06.042Z,60.74
2018-08-09T09:37:06.071Z,60.55
2018-08-09T09:38:06.172Z,60.94
2018-08-09T09:39:06.125Z,61.04
2018-08-09T09:40:06.172Z,61.72
2018-08-09T09:41:06.187Z,60.77
2018-08-09T09:42:06.223Z,60.67
2018-08-09T09:43:06.258Z,59.69
2018-08-09T09:44:06.284Z,59.72
2018-08-09T09:45:06.314Z,58.97
2018-08-09T09:46:06.345Z,57.82
2018-08-09T09:47:06.376Z,57.40
2018-08-09T09:48:06.409Z,56.87
2018-08-09T09:49:06.444Z,55.95
2018-08-09T09:50:06.482Z,55.10
2018-08-09T09:51:06.501Z,54.11
2018-08-09T09:52:06.546Z,54.70
2018-08-09T09:53:06.563Z,53.36
2018-08-09T09:54:06.606Z,52.80
2018-08-09T09:55:06.632Z,52.69
2018-08-09T09:56:06.710Z,51.98
2018-08-09T09:57:06.702Z,51.52
2018-08-09T09:58:06.736Z,51.05
2018-08-09T09:59:06.755Z,50.49
2018-08-09T10:00:06.790Z,49.92
2018-08-09T10:01:06.824Z,49.53
2018-08-09T10:02:06.854Z,49.16
2018-08-09T10:03:06.891Z,48.47
2018-08-09T10:04:06.916Z,49.26
2018-08-09T10:05:06.959Z,49.55
2018-08-09T10:06:06.977Z,49.65
2018-08-09T10:07:07.075Z,49.75
2018-08-09T10:08:07.049Z,49.85
2018-08-09T10:09:07.079Z,49.41
2018-08-09T10:10:07.102Z,51.17
2018-08-09T10:11:07.138Z,50.90
2018-08-09T10:12:07.165Z,50.85
2018-08-09T10:13:07.207Z,51.03
2018-08-09T10:14:07.240Z,51.72
2018-08-09T10:15:07.264Z,52.59
2018-08-09T10:16:07.305Z,52.13
2018-08-09T10:17:07.325Z,51.27
2018-08-09T10:18:07.408Z,51.10
2018-08-09T10:19:07.404Z,50.14
2018-08-09T10:20:07.427Z,48.82
2018-08-09T10:21:07.454Z,48.67
2018-08-09T10:22:07.490Z,48.96
2018-08-09T10:23:07.527Z,48.74
2018-08-09T10:24:07.554Z,49.82
2018-08-09T10:25:07.580Z,48.39
2018-08-09T10:26:07.623Z,47.68
2018-08-09T10:27:07.658Z,46.40
2018-08-09T10:28:07.687Z,46.40
2018-08-09T10:29:07.728Z,44.45
2018-08-09T10:30:07.750Z,44.70
2018-08-09T10:31:07.777Z,46.35
2018-08-09T10:32:07.814Z,46.23
2018-08-09T10:33:07.842Z,45.37
2018-08-09T10:34:07.876Z,45.61
2018-08-09T10:35:07.915Z,44.91
2018-08-09T10:36:07.956Z,44.04
2018-08-09T10:37:07.977Z,43.23
2018-08-09T10:38:08.010Z,41.85
2018-08-09T10:39:08.034Z,42.60
2018-08-09T10:40:08.069Z,43.43
2018-08-09T10:41:08.102Z,42.21
2018-08-09T10:42:08.136Z,40.74
2018-08-09T10:43:08.177Z,39.37
2018-08-09T10:44:08.202Z,39.71
2018-08-09T10:45:08.232Z,37.98
2018-08-09T10:46:08.274Z,37.01
2018-08-09T10:47:08.305Z,36.91
2018-08-09T10:48:08.332Z,36.65
2018-08-09T10:49:08.369Z,36.27
2018-08-09T10:50:08.413Z,35.22
2018-08-09T10:51:08.428Z,33.63
2018-08-09T10:52:08.468Z,34.30
2018-08-09T10:53:08.521Z,36.71
2018-08-09T10:54:08.542Z,36.94
2018-08-09T10:55:08.572Z,36.53
2018-08-09T10:56:08.598Z,36.88
2018-08-09T10:57:08.658Z,37.15
2018-08-09T10:58:08.677Z,36.88
2018-08-09T10:59:08.717Z,38.03
2018-08-09T11:00:08.742Z,38.03
2018-08-09T11:01:08.770Z,38.03
2018-08-09T11:02:08.799Z,37.95
2018-08-09T11:03:08.874Z,37.83
2018-08-09T11:04:08.865Z,37.17
2018-08-09T11:05:08.911Z,36.63
2018-08-09T11:06:08.939Z,35.95
2018-08-09T11:07:08.984Z,35.29
2018-08-09T11:08:09.021Z,35.16
2018-08-09T11:09:09.050Z,34.11
2018-08-09T11:10:09.078Z,32.86
2018-08-09T11:11:09.114Z,32.90
2018-08-09T11:12:09.183Z,33.67
2018-08-09T11:13:09.187Z,35.41
2018-08-09T11:14:09.211Z,35.78
2018-08-09T11:15:09.298Z,36.90
2018-08-09T11:16:09.281Z,35.44
2018-08-09T11:17:09.325Z,35.42
2018-08-09T11:18:09.355Z,35.72
2018-08-09T11:19:09.405Z,35.13
2018-08-09T11:20:09.434Z,35.42
2018-08-09T11:21:09.610Z,34.46
2018-08-09T11:22:09.508Z,34.22
2018-08-09T11:23:09.579Z,36.56
2018-08-09T11:24:09.570Z,36.53
2018-08-09T11:25:09.622Z,34.99
2018-08-09T11:26:09.648Z,34.11
2018-08-09T11:27:09.695Z,33.40
2018-08-09T11:28:09.722Z,33.78
2018-08-09T11:29:09.773Z,33.40
2018-08-09T11:30:09.810Z,33.69
2018-08-09T11:31:09.839Z,33.88
2018-08-09T11:32:09.889Z,33.12
2018-08-09T11:33:09.913Z,33.20
2018-08-09T11:34:09.955Z,33.76
2018-08-09T11:35:10.020Z,34.58
2018-08-09T11:36:10.029Z,33.85
2018-08-09T11:37:10.068Z,34.64
2018-08-09T11:38:10.112Z,34.56
2018-08-09T11:39:10.169Z,33.70
2018-08-09T11:40:10.195Z,32.44
2018-08-09T11:41:10.233Z,32.23
2018-08-09T11:42:10.267Z,32.90
2018-08-09T11:43:10.301Z,35.13
2018-08-09T11:44:10.342Z,36.36
2018-08-09T11:45:10.398Z,37.10
2018-08-09T11:46:10.420Z,38.51
2018-08-09T11:47:10.452Z,40.94
2018-08-09T11:48:10.493Z,41.33
2018-08-09T11:49:10.602Z,42.00
2018-08-09T11:50:10.571Z,42.60
2018-08-09T11:51:10.600Z,43.27
2018-08-09T11:52:10.634Z,43.44
2018-08-09T11:53:10.669Z,43.54
2018-08-09T11:54:10.708Z,43.71
2018-08-09T11:55:10.748Z,44.29
2018-08-09T11:56:10.852Z,46.23
2018-08-09T11:57:10.818Z,46.11
2018-08-09T11:58:10.848Z,46.11
2018-08-09T11:59:10.887Z,47.54
2018-08-09T12:00:10.917Z,48.13
2018-08-09T12:01:10.963Z,48.01
2018-08-09T12:02:10.988Z,48.18
2018-08-09T12:03:11.026Z,49.07
2018-08-09T12:04:11.053Z,49.95
2018-08-09T12:05:11.089Z,49.85
2018-08-09T12:06:11.117Z,49.73
2018-08-09T12:07:11.217Z,50.61
2018-08-09T12:08:11.185Z,50.71
2018-08-09T12:09:11.221Z,50.93
2018-08-09T12:10:11.260Z,51.91
2018-08-09T12:11:11.302Z,49.75
2018-08-09T12:12:11.319Z,49.65
2018-08-09T12:13:11.353Z,50.83
2018-08-09T12:14:11.392Z,51.79
2018-08-09T12:15:12.314Z,50.51
2018-08-09T12:16:11.459Z,51.07
2018-08-09T12:17:11.490Z,51.46
2018-08-09T12:18:11.526Z,51.76
2018-08-09T12:19:11.555Z,51.73
2018-08-09T12:20:11.593Z,51.54
2018-08-09T12:21:11.624Z,52.72
2018-08-09T12:22:11.657Z,52.91
2018-08-09T12:23:11.701Z,52.52
2018-08-09T12:24:11.720Z,52.35
2018-08-09T12:25:11.755Z,52.33
2018-08-09T12:26:11.786Z,53.11
2018-08-09T12:27:11.817Z,52.72
2018-08-09T12:28:11.863Z,52.91
2018-08-09T12:29:11.882Z,51.90
2018-08-09T12:30:11.913Z,52.30
2018-08-09T12:31:11.957Z,52.03
2018-08-09T12:32:11.979Z,52.59
2018-08-09T12:33:12.075Z,52.59
2018-08-09T12:34:12.047Z,53.38
2018-08-09T12:35:12.082Z,52.40
2018-08-09T12:36:12.138Z,52.40
2018-08-09T12:37:12.140Z,52.59
2018-08-09T12:38:12.176Z,52.56
2018-08-09T12:39:12.210Z,52.40
2018-08-09T12:40:12.247Z,52.96
2018-08-09T12:41:12.278Z,51.42
2018-08-09T12:42:12.313Z,52.59
2018-08-09T12:43:12.353Z,52.50
2018-08-09T12:44:12.370Z,52.20
2018-08-09T12:45:12.464Z,53.38
2018-08-09T12:46:12.443Z,51.81
2018-08-09T12:47:12.472Z,52.89
2018-08-09T12:48:12.504Z,53.18
2018-08-09T12:49:12.546Z,51.32
2018-08-09T12:50:12.569Z,52.00
2018-08-09T12:51:12.599Z,51.61
2018-08-09T12:52:12.637Z,51.61
2018-08-09T12:53:12.667Z,51.73